Terminal Aerodrome Forecast
Issued by NWS

Home | Current Version | Previous Version | Text Only | Print | Product List | Glossary On
Versions: 1 2 3 4 5 6 7 8 9 10 11 12
000
FTUS45 KPIH 170500
TAFSUN
TAF
KSUN 170520Z 1706/1806 31008KT P6SM SCT250
     FM171200 VRB04KT P6SM VCSH BKN120 BKN200
     FM171800 16010KT P6SM VCTS BKN090CB BKN180
     FM172100 24010KT P6SM SCT080 SCT200
     FM180300 31006KT P6SM VCSH BKN100 BKN180
      AMD LTD TO CLD VIS AND WIND TIL 171300=

USA.gov is the U.S. government's official web portal to all federal, state and local government web resources and services.